createdAt,value
2023-05-06T00:00:00.823Z,0.00
2023-05-06T00:05:00.780Z,0.00
2023-05-06T00:10:00.860Z,0.00
2023-05-06T00:15:00.631Z,0.00
2023-05-06T00:20:00.663Z,0.00
2023-05-06T00:25:00.562Z,0.00
2023-05-06T00:30:00.447Z,0.00
2023-05-06T00:35:00.410Z,0.00
2023-05-06T00:40:00.374Z,0.00
2023-05-06T00:45:00.321Z,0.00
2023-05-06T00:50:00.341Z,0.00
2023-05-06T00:55:00.173Z,0.00
2023-05-06T01:00:00.250Z,0.00
2023-05-06T01:05:00.160Z,0.00
2023-05-06T01:10:00.050Z,0.00
2023-05-06T01:14:59.968Z,0.00
2023-05-06T01:19:59.967Z,0.00
2023-05-06T01:24:59.867Z,0.00
2023-05-06T01:29:59.829Z,0.00
2023-05-06T01:34:59.795Z,0.00
2023-05-06T01:39:59.844Z,0.00
2023-05-06T01:44:59.782Z,0.00
2023-05-06T01:49:59.721Z,0.00
2023-05-06T01:54:59.650Z,0.00
2023-05-06T01:59:59.502Z,0.00
2023-05-06T02:04:59.427Z,0.00
2023-05-06T02:09:59.420Z,0.00
2023-05-06T02:14:59.353Z,0.00
2023-05-06T02:20:00.477Z,0.00
2023-05-06T02:24:59.386Z,0.00
2023-05-06T02:29:59.315Z,0.00
2023-05-06T02:34:59.272Z,0.00
2023-05-06T02:39:59.207Z,0.00
2023-05-06T02:44:59.163Z,0.00
2023-05-06T02:49:59.205Z,0.00
2023-05-06T02:54:58.925Z,0.00
2023-05-06T02:59:58.864Z,0.00
2023-05-06T03:04:58.857Z,0.00
2023-05-06T03:09:58.727Z,0.00
2023-05-06T03:14:58.696Z,0.00
2023-05-06T03:19:58.643Z,0.00
2023-05-06T03:24:58.788Z,0.00
2023-05-06T03:29:58.540Z,0.00
2023-05-06T03:34:58.645Z,0.00
2023-05-06T03:39:58.592Z,0.00
2023-05-06T03:44:58.428Z,5.62
2023-05-06T03:49:58.485Z,11.25
2023-05-06T03:54:58.269Z,16.88
2023-05-06T03:59:58.249Z,28.12
2023-05-06T04:04:58.184Z,39.38
2023-05-06T04:09:58.136Z,56.25
2023-05-06T04:14:58.186Z,78.75
2023-05-06T04:19:58.015Z,101.25
2023-05-06T04:24:58.133Z,123.75
2023-05-06T04:29:57.941Z,140.62
2023-05-06T04:34:57.919Z,168.75
2023-05-06T04:39:57.896Z,202.50
2023-05-06T04:44:58.851Z,253.12
2023-05-06T04:49:57.678Z,275.62
2023-05-06T04:54:57.702Z,264.38
2023-05-06T04:59:57.594Z,309.38
2023-05-06T05:04:57.532Z,320.62
2023-05-06T05:09:57.510Z,354.38
2023-05-06T05:14:57.606Z,354.38
2023-05-06T05:19:57.503Z,416.25
2023-05-06T05:24:57.297Z,708.75
2023-05-06T05:29:57.468Z,517.50
2023-05-06T05:34:57.325Z,658.12
2023-05-06T05:39:57.232Z,720.00
2023-05-06T05:44:57.136Z,776.25
2023-05-06T05:49:58.160Z,900.00
2023-05-06T05:54:57.028Z,967.50
2023-05-06T05:59:56.934Z,990.00
2023-05-06T06:04:56.872Z,973.12
2023-05-06T06:10:00.280Z,1096.88
2023-05-06T06:14:56.915Z,1254.38
2023-05-06T06:19:56.868Z,1237.50
2023-05-06T06:24:56.767Z,1102.50
2023-05-06T06:29:56.694Z,1198.12
2023-05-06T06:34:56.510Z,1243.12
2023-05-06T06:39:56.487Z,1237.50
2023-05-06T06:44:56.409Z,1333.12
2023-05-06T06:49:56.367Z,1501.88
2023-05-06T06:54:56.347Z,1749.38
2023-05-06T07:00:05.116Z,1861.88
2023-05-06T07:04:56.176Z,2086.88
2023-05-06T07:09:56.134Z,2086.88
2023-05-06T07:14:56.125Z,2311.88
2023-05-06T07:19:55.999Z,2643.75
2023-05-06T07:24:56.010Z,2790.00
2023-05-06T07:29:55.906Z,3116.25
2023-05-06T07:34:55.853Z,2970.00
2023-05-06T07:39:55.822Z,3211.88
2023-05-06T07:44:55.762Z,3346.88
2023-05-06T07:49:55.709Z,3403.12
2023-05-06T07:54:55.747Z,3639.38
2023-05-06T07:59:55.596Z,3695.62
2023-05-06T08:04:55.745Z,3746.25
2023-05-06T08:09:55.553Z,3560.62
2023-05-06T08:14:55.416Z,3521.25
2023-05-06T08:19:55.414Z,3892.50
2023-05-06T08:24:55.313Z,3628.12
2023-05-06T08:29:55.292Z,4100.62
2023-05-06T08:34:55.231Z,1428.75
2023-05-06T08:39:55.171Z,3830.62
2023-05-06T08:44:55.288Z,3684.38
2023-05-06T08:49:55.089Z,3459.38
2023-05-06T08:54:55.145Z,3510.00
2023-05-06T08:59:55.974Z,3791.25
2023-05-06T09:04:55.008Z,4556.25
2023-05-06T09:09:54.945Z,4443.75
2023-05-06T09:14:54.820Z,4550.62
2023-05-06T09:19:54.773Z,4702.50
2023-05-06T09:24:54.705Z,3903.75
2023-05-06T09:29:54.654Z,4083.75
2023-05-06T09:34:54.595Z,4241.25
2023-05-06T09:39:54.567Z,3937.50
2023-05-06T09:44:54.507Z,4494.38
2023-05-06T09:49:54.490Z,3706.88
2023-05-06T09:54:54.434Z,4606.88
2023-05-06T09:59:54.426Z,4944.38
2023-05-06T10:04:54.427Z,5051.25
2023-05-06T10:09:54.278Z,4758.75
2023-05-06T10:14:54.235Z,5028.75
2023-05-06T10:19:54.177Z,4944.38
2023-05-06T10:24:54.116Z,4730.62
2023-05-06T10:29:54.085Z,5484.38
2023-05-06T10:34:54.111Z,5613.75
2023-05-06T10:39:57.451Z,4905.00
2023-05-06T10:44:53.959Z,3076.88
2023-05-06T10:49:53.933Z,1541.25
2023-05-06T10:54:53.816Z,1479.38
2023-05-06T10:59:53.784Z,6108.75
2023-05-06T11:04:53.749Z,6148.12
2023-05-06T11:09:53.660Z,1603.12
2023-05-06T11:14:53.609Z,1468.12
2023-05-06T11:19:53.699Z,1288.12
2023-05-06T11:24:53.592Z,1260.00
2023-05-06T11:29:53.487Z,916.88
2023-05-06T11:34:53.420Z,967.50
2023-05-06T11:39:53.453Z,4021.88
2023-05-06T11:44:53.303Z,1580.62
2023-05-06T11:49:53.268Z,1929.38
2023-05-06T11:54:53.208Z,5473.12
2023-05-06T11:59:53.166Z,1501.88
2023-05-06T12:04:53.262Z,1755.00
2023-05-06T12:09:53.104Z,3819.38
2023-05-06T12:14:53.107Z,2238.75
2023-05-06T12:19:52.946Z,1861.88
2023-05-06T12:24:52.918Z,1715.62
2023-05-06T12:29:52.817Z,2328.75
2023-05-06T12:34:52.849Z,3026.25
2023-05-06T12:39:52.790Z,4516.88
2023-05-06T12:44:52.740Z,4162.50
2023-05-06T12:49:52.705Z,4899.38
2023-05-06T12:54:52.933Z,3076.88
2023-05-06T12:59:52.582Z,3639.38
2023-05-06T13:04:52.507Z,3588.75
2023-05-06T13:09:59.550Z,3735.00
2023-05-06T13:14:52.391Z,4460.62
2023-05-06T13:19:52.462Z,4230.00
2023-05-06T13:24:52.297Z,4426.88
2023-05-06T13:29:52.329Z,4016.25
2023-05-06T13:34:52.214Z,3875.62
2023-05-06T13:39:52.288Z,4466.25
2023-05-06T13:44:52.104Z,4151.25
2023-05-06T13:49:52.197Z,3363.75
2023-05-06T13:54:52.153Z,3594.38
2023-05-06T13:59:52.112Z,3015.00
2023-05-06T14:04:52.031Z,1344.38
2023-05-06T14:09:51.951Z,2435.62
2023-05-06T14:14:51.867Z,2587.50
2023-05-06T14:19:51.797Z,2064.38
2023-05-06T14:24:51.734Z,1507.50
2023-05-06T14:29:51.707Z,1513.12
2023-05-06T14:34:51.770Z,1507.50
2023-05-06T14:39:51.669Z,1468.12
2023-05-06T14:44:51.631Z,1299.38
2023-05-06T14:49:51.586Z,1074.38
2023-05-06T14:54:51.551Z,984.38
2023-05-06T14:59:51.368Z,905.62
2023-05-06T15:04:51.326Z,871.88
2023-05-06T15:09:51.300Z,950.62
2023-05-06T15:14:51.252Z,1023.75
2023-05-06T15:19:51.209Z,956.25
2023-05-06T15:24:51.262Z,877.50
2023-05-06T15:29:51.188Z,804.38
2023-05-06T15:34:51.092Z,781.88
2023-05-06T15:39:51.085Z,753.75
2023-05-06T15:44:50.996Z,669.38
2023-05-06T15:50:10.885Z,585.00
2023-05-06T15:54:51.803Z,500.62
2023-05-06T15:59:50.746Z,461.25
2023-05-06T16:04:50.899Z,444.38
2023-05-06T16:09:50.734Z,416.25
2023-05-06T16:14:50.654Z,382.50
2023-05-06T16:19:50.630Z,382.50
2023-05-06T16:24:50.545Z,388.12
2023-05-06T16:29:50.423Z,382.50
2023-05-06T16:34:50.487Z,376.88
2023-05-06T16:39:50.319Z,421.88
2023-05-06T16:44:50.247Z,393.75
2023-05-06T16:49:50.184Z,410.62
2023-05-06T16:54:51.227Z,405.00
2023-05-06T16:59:50.215Z,433.12
2023-05-06T17:04:50.167Z,388.12
2023-05-06T17:09:50.097Z,320.62
2023-05-06T17:14:50.003Z,292.50
2023-05-06T17:19:49.936Z,292.50
2023-05-06T17:24:49.828Z,303.75
2023-05-06T17:29:49.776Z,247.50
2023-05-06T17:34:49.756Z,208.12
2023-05-06T17:39:49.738Z,174.38
2023-05-06T17:44:49.665Z,135.00
2023-05-06T17:49:49.618Z,106.88
2023-05-06T17:54:57.486Z,90.00
2023-05-06T17:59:50.487Z,101.25
2023-05-06T18:04:49.476Z,112.50
2023-05-06T18:09:49.345Z,106.88
2023-05-06T18:14:49.385Z,95.62
2023-05-06T18:19:49.257Z,78.75
2023-05-06T18:24:49.204Z,61.88
2023-05-06T18:29:50.159Z,61.88
2023-05-06T18:34:49.180Z,50.62
2023-05-06T18:39:49.118Z,39.38
2023-05-06T18:44:49.039Z,28.12
2023-05-06T18:49:52.325Z,16.88
2023-05-06T18:54:48.853Z,11.25
2023-05-06T18:59:48.793Z,5.62
2023-05-06T19:04:48.760Z,5.62
2023-05-06T19:09:57.520Z,0.00
2023-05-06T19:14:48.636Z,0.00
2023-05-06T19:19:48.653Z,0.00
2023-05-06T19:24:48.504Z,0.00
2023-05-06T19:29:48.488Z,0.00
2023-05-06T19:34:48.462Z,0.00
2023-05-06T19:39:48.382Z,0.00
2023-05-06T19:44:48.420Z,0.00
2023-05-06T19:49:48.380Z,0.00
2023-05-06T19:54:48.309Z,0.00
2023-05-06T19:59:48.121Z,0.00
2023-05-06T20:04:48.096Z,0.00
2023-05-06T20:09:48.020Z,0.00
2023-05-06T20:14:48.009Z,0.00
2023-05-06T20:19:48.015Z,0.00
2023-05-06T20:24:47.934Z,0.00
2023-05-06T20:29:47.928Z,0.00
2023-05-06T20:34:47.884Z,0.00
2023-05-06T20:39:47.788Z,0.00
2023-05-06T20:44:47.755Z,0.00
2023-05-06T20:49:47.721Z,0.00
2023-05-06T20:54:47.638Z,0.00
2023-05-06T20:59:47.469Z,0.00
2023-05-06T21:04:47.451Z,0.00
2023-05-06T21:09:47.383Z,0.00
2023-05-06T21:14:47.293Z,0.00
2023-05-06T21:19:47.252Z,0.00
2023-05-06T21:24:47.189Z,0.00
2023-05-06T21:29:47.163Z,0.00
2023-05-06T21:34:47.117Z,0.00
2023-05-06T21:39:47.203Z,0.00
2023-05-06T21:44:47.063Z,0.00
2023-05-06T21:49:46.924Z,0.00
2023-05-06T21:54:47.071Z,0.00
2023-05-06T21:59:46.873Z,0.00
2023-05-06T22:04:48.820Z,0.00
2023-05-06T22:09:46.699Z,0.00
2023-05-06T22:14:46.741Z,0.00
2023-05-06T22:19:46.660Z,0.00
2023-05-06T22:24:46.560Z,0.00
2023-05-06T22:29:46.672Z,0.00
2023-05-06T22:34:46.594Z,0.00
2023-05-06T22:39:46.426Z,0.00
2023-05-06T22:44:46.328Z,0.00
2023-05-06T22:49:46.284Z,0.00
2023-05-06T22:54:46.248Z,0.00
2023-05-06T22:59:46.185Z,0.00
2023-05-06T23:04:46.237Z,0.00
2023-05-06T23:09:46.182Z,0.00
2023-05-06T23:14:46.009Z,0.00
2023-05-06T23:19:46.112Z,0.00
2023-05-06T23:24:45.934Z,0.00
2023-05-06T23:29:45.848Z,0.00
2023-05-06T23:34:45.822Z,0.00
2023-05-06T23:39:45.785Z,0.00
2023-05-06T23:44:45.785Z,0.00
2023-05-06T23:49:45.684Z,0.00
2023-05-06T23:54:45.598Z,0.00
2023-05-06T23:59:45.578Z,0.00
